sensor_id;sensor_type;location;lat;lon;timestamp;P1;durP1;ratioP1;P2;durP2;ratioP2
6467;SDS011;3267;48.794;9.928;2022-07-23T04:02:25;2.60;;;2.40;;
6467;SDS011;3267;48.794;9.928;2022-07-23T04:04:52;2.88;;;2.67;;
6467;SDS011;3267;48.794;9.928;2022-07-23T04:07:18;2.72;;;2.50;;
6467;SDS011;3267;48.794;9.928;2022-07-23T04:09:44;3.95;;;2.80;;
6467;SDS011;3267;48.794;9.928;2022-07-23T04:12:11;2.85;;;2.55;;
6467;SDS011;3267;48.794;9.928;2022-07-23T04:14:37;2.78;;;2.55;;
6467;SDS011;3267;48.794;9.928;2022-07-23T04:17:03;2.92;;;2.72;;
6467;SDS011;3267;48.794;9.928;2022-07-23T04:19:29;2.70;;;2.50;;
6467;SDS011;3267;48.794;9.928;2022-07-23T04:21:58;2.80;;;2.60;;
6467;SDS011;3267;48.794;9.928;2022-07-23T04:24:25;3.30;;;2.78;;
6467;SDS011;3267;48.794;9.928;2022-07-23T04:26:51;2.75;;;2.50;;
6467;SDS011;3267;48.794;9.928;2022-07-23T04:29:21;3.33;;;2.40;;
6467;SDS011;3267;48.794;9.928;2022-07-23T04:31:47;3.20;;;2.55;;
6467;SDS011;3267;48.794;9.928;2022-07-23T04:34:13;2.97;;;2.67;;
6467;SDS011;3267;48.794;9.928;2022-07-23T04:36:39;3.10;;;2.80;;
6467;SDS011;3267;48.794;9.928;2022-07-23T04:39:05;5.20;;;2.60;;
6467;SDS011;3267;48.794;9.928;2022-07-23T04:41:31;2.83;;;2.60;;
6467;SDS011;3267;48.794;9.928;2022-07-23T04:43:59;3.25;;;2.88;;
6467;SDS011;3267;48.794;9.928;2022-07-23T04:46:28;3.45;;;2.90;;
6467;SDS011;3267;48.794;9.928;2022-07-23T04:48:55;3.05;;;2.53;;
6467;SDS011;3267;48.794;9.928;2022-07-23T04:51:21;3.28;;;2.65;;
6467;SDS011;3267;48.794;9.928;2022-07-23T04:53:47;4.13;;;2.80;;
6467;SDS011;3267;48.794;9.928;2022-07-23T04:56:13;3.30;;;3.00;;
6467;SDS011;3267;48.794;9.928;2022-07-23T04:58:39;3.47;;;2.97;;
6467;SDS011;3267;48.794;9.928;2022-07-23T05:01:05;3.13;;;2.85;;
6467;SDS011;3267;48.794;9.928;2022-07-23T05:03:32;3.47;;;3.00;;
6467;SDS011;3267;48.794;9.928;2022-07-23T05:05:58;3.08;;;2.67;;
6467;SDS011;3267;48.794;9.928;2022-07-23T05:08:24;3.38;;;2.60;;
6467;SDS011;3267;48.794;9.928;2022-07-23T05:10:51;4.25;;;2.85;;
6467;SDS011;3267;48.794;9.928;2022-07-23T05:13:17;3.30;;;2.40;;
6467;SDS011;3267;48.794;9.928;2022-07-23T05:15:43;3.65;;;2.97;;
6467;SDS011;3267;48.794;9.928;2022-07-23T05:18:10;2.80;;;2.60;;
6467;SDS011;3267;48.794;9.928;2022-07-23T05:20:36;7.68;;;2.78;;
6467;SDS011;3267;48.794;9.928;2022-07-23T05:23:03;3.42;;;2.95;;
6467;SDS011;3267;48.794;9.928;2022-07-23T05:25:29;3.10;;;2.90;;
6467;SDS011;3267;48.794;9.928;2022-07-23T05:27:55;3.50;;;2.85;;
6467;SDS011;3267;48.794;9.928;2022-07-23T05:30:23;4.28;;;2.67;;
6467;SDS011;3267;48.794;9.928;2022-07-23T05:32:49;3.17;;;2.97;;
6467;SDS011;3267;48.794;9.928;2022-07-23T05:35:15;3.35;;;3.00;;
6467;SDS011;3267;48.794;9.928;2022-07-23T05:37:41;2.67;;;2.47;;
6467;SDS011;3267;48.794;9.928;2022-07-23T05:40:08;5.75;;;3.47;;
6467;SDS011;3267;48.794;9.928;2022-07-23T05:42:36;3.20;;;2.90;;
6467;SDS011;3267;48.794;9.928;2022-07-23T05:45:06;4.63;;;3.30;;
6467;SDS011;3267;48.794;9.928;2022-07-23T05:48:06;3.58;;;3.20;;
6467;SDS011;3267;48.794;9.928;2022-07-23T05:50:25;3.50;;;3.20;;
6467;SDS011;3267;48.794;9.928;2022-07-23T05:52:51;3.42;;;2.90;;
6467;SDS011;3267;48.794;9.928;2022-07-23T05:55:17;3.20;;;2.83;;
6467;SDS011;3267;48.794;9.928;2022-07-23T05:57:43;3.22;;;2.90;;
6467;SDS011;3267;48.794;9.928;2022-07-23T06:00:10;2.85;;;2.65;;
6467;SDS011;3267;48.794;9.928;2022-07-23T06:02:37;3.20;;;2.90;;
6467;SDS011;3267;48.794;9.928;2022-07-23T06:05:04;3.05;;;2.83;;
6467;SDS011;3267;48.794;9.928;2022-07-23T06:07:30;3.88;;;3.22;;
6467;SDS011;3267;48.794;9.928;2022-07-23T06:09:56;2.80;;;2.58;;
6467;SDS011;3267;48.794;9.928;2022-07-23T06:12:23;3.45;;;2.83;;
6467;SDS011;3267;48.794;9.928;2022-07-23T06:14:49;3.70;;;3.10;;
6467;SDS011;3267;48.794;9.928;2022-07-23T06:17:17;3.00;;;2.80;;
6467;SDS011;3267;48.794;9.928;2022-07-23T06:19:44;3.80;;;3.10;;
6467;SDS011;3267;48.794;9.928;2022-07-23T06:22:10;3.88;;;3.30;;
6467;SDS011;3267;48.794;9.928;2022-07-23T06:24:36;3.53;;;3.22;;
6467;SDS011;3267;48.794;9.928;2022-07-23T06:27:03;4.70;;;3.15;;
6467;SDS011;3267;48.794;9.928;2022-07-23T06:29:29;3.28;;;2.70;;
6467;SDS011;3267;48.794;9.928;2022-07-23T06:31:55;3.15;;;2.92;;
6467;SDS011;3267;48.794;9.928;2022-07-23T06:34:21;4.65;;;3.47;;
6467;SDS011;3267;48.794;9.928;2022-07-23T06:36:47;4.32;;;3.05;;
6467;SDS011;3267;48.794;9.928;2022-07-23T06:39:14;4.38;;;3.15;;
6467;SDS011;3267;48.794;9.928;2022-07-23T06:41:40;3.80;;;2.65;;
6467;SDS011;3267;48.794;9.928;2022-07-23T06:44:07;3.97;;;3.35;;
6467;SDS011;3267;48.794;9.928;2022-07-23T06:46:33;4.22;;;3.17;;
6467;SDS011;3267;48.794;9.928;2022-07-23T06:48:59;3.45;;;3.15;;
6467;SDS011;3267;48.794;9.928;2022-07-23T06:51:25;3.40;;;3.10;;
6467;SDS011;3267;48.794;9.928;2022-07-23T06:53:51;3.75;;;3.33;;
6467;SDS011;3267;48.794;9.928;2022-07-23T06:56:18;3.60;;;2.90;;
6467;SDS011;3267;48.794;9.928;2022-07-23T06:58:44;4.28;;;3.25;;
6467;SDS011;3267;48.794;9.928;2022-07-23T07:01:10;3.15;;;2.85;;
6467;SDS011;3267;48.794;9.928;2022-07-23T07:03:36;3.30;;;3.00;;
6467;SDS011;3267;48.794;9.928;2022-07-23T07:06:03;3.72;;;3.13;;
6467;SDS011;3267;48.794;9.928;2022-07-23T07:08:29;4.97;;;3.50;;
6467;SDS011;3267;48.794;9.928;2022-07-23T07:10:56;3.22;;;2.92;;
6467;SDS011;3267;48.794;9.928;2022-07-23T07:13:22;3.83;;;3.10;;
6467;SDS011;3267;48.794;9.928;2022-07-23T07:15:48;3.40;;;3.10;;
6467;SDS011;3267;48.794;9.928;2022-07-23T07:18:14;3.60;;;3.30;;
6467;SDS011;3267;48.794;9.928;2022-07-23T07:20:40;3.80;;;3.17;;
6467;SDS011;3267;48.794;9.928;2022-07-23T07:23:07;3.45;;;3.15;;
6467;SDS011;3267;48.794;9.928;2022-07-23T07:25:33;3.45;;;2.97;;
6467;SDS011;3267;48.794;9.928;2022-07-23T07:27:59;5.97;;;3.33;;
6467;SDS011;3267;48.794;9.928;2022-07-23T07:30:26;6.20;;;3.28;;
6467;SDS011;3267;48.794;9.928;2022-07-23T07:32:52;3.25;;;2.95;;
6467;SDS011;3267;48.794;9.928;2022-07-23T07:35:18;7.22;;;3.55;;
6467;SDS011;3267;48.794;9.928;2022-07-23T07:37:44;3.58;;;3.28;;
6467;SDS011;3267;48.794;9.928;2022-07-23T07:40:10;4.65;;;3.30;;
6467;SDS011;3267;48.794;9.928;2022-07-23T07:42:46;4.18;;;3.05;;
6467;SDS011;3267;48.794;9.928;2022-07-23T07:45:13;3.65;;;3.35;;
6467;SDS011;3267;48.794;9.928;2022-07-23T07:47:40;4.20;;;3.10;;
6467;SDS011;3267;48.794;9.928;2022-07-23T07:50:06;4.63;;;3.50;;
6467;SDS011;3267;48.794;9.928;2022-07-23T07:52:34;4.10;;;3.70;;
6467;SDS011;3267;48.794;9.928;2022-07-23T07:55:03;5.30;;;3.22;;
6467;SDS011;3267;48.794;9.928;2022-07-23T07:57:29;3.67;;;3.35;;
6467;SDS011;3267;48.794;9.928;2022-07-23T07:59:56;3.47;;;3.20;;
6467;SDS011;3267;48.794;9.928;2022-07-23T08:02:22;5.25;;;3.45;;
6467;SDS011;3267;48.794;9.928;2022-07-23T08:04:48;4.30;;;3.50;;
6467;SDS011;3267;48.794;9.928;2022-07-23T08:07:15;3.90;;;3.47;;
6467;SDS011;3267;48.794;9.928;2022-07-23T08:09:41;4.70;;;3.50;;
6467;SDS011;3267;48.794;9.928;2022-07-23T08:12:08;4.15;;;3.75;;
6467;SDS011;3267;48.794;9.928;2022-07-23T08:14:34;4.38;;;3.38;;
6467;SDS011;3267;48.794;9.928;2022-07-23T08:17:00;3.67;;;3.35;;
6467;SDS011;3267;48.794;9.928;2022-07-23T08:19:27;5.30;;;4.18;;
6467;SDS011;3267;48.794;9.928;2022-07-23T08:21:53;3.90;;;3.60;;
6467;SDS011;3267;48.794;9.928;2022-07-23T08:24:19;4.93;;;3.45;;
6467;SDS011;3267;48.794;9.928;2022-07-23T08:26:45;4.07;;;3.67;;
6467;SDS011;3267;48.794;9.928;2022-07-23T08:29:12;3.97;;;3.67;;
6467;SDS011;3267;48.794;9.928;2022-07-23T08:31:38;4.78;;;3.50;;
6467;SDS011;3267;48.794;9.928;2022-07-23T08:34:05;4.35;;;3.67;;
6467;SDS011;3267;48.794;9.928;2022-07-23T08:36:31;3.70;;;3.30;;
6467;SDS011;3267;48.794;9.928;2022-07-23T08:38:58;4.00;;;3.67;;
6467;SDS011;3267;48.794;9.928;2022-07-23T08:41:24;3.92;;;3.47;;
6467;SDS011;3267;48.794;9.928;2022-07-23T08:43:51;4.85;;;3.70;;
6467;SDS011;3267;48.794;9.928;2022-07-23T08:46:18;3.60;;;3.30;;
6467;SDS011;3267;48.794;9.928;2022-07-23T08:48:44;6.10;;;3.60;;
6467;SDS011;3267;48.794;9.928;2022-07-23T08:51:13;3.63;;;3.13;;
6467;SDS011;3267;48.794;9.928;2022-07-23T08:53:40;4.45;;;3.58;;
6467;SDS011;3267;48.794;9.928;2022-07-23T08:56:07;3.92;;;3.55;;
6467;SDS011;3267;48.794;9.928;2022-07-23T08:58:33;3.95;;;3.65;;
6467;SDS011;3267;48.794;9.928;2022-07-23T09:00:59;3.03;;;2.83;;
6467;SDS011;3267;48.794;9.928;2022-07-23T09:03:27;4.45;;;3.40;;
6467;SDS011;3267;48.794;9.928;2022-07-23T09:05:55;3.90;;;3.42;;
6467;SDS011;3267;48.794;9.928;2022-07-23T09:08:23;6.50;;;3.38;;
6467;SDS011;3267;48.794;9.928;2022-07-23T09:10:57;3.53;;;3.22;;
6467;SDS011;3267;48.794;9.928;2022-07-23T09:13:34;3.67;;;3.38;;
6467;SDS011;3267;48.794;9.928;2022-07-23T09:16:09;3.88;;;3.28;;
6467;SDS011;3267;48.794;9.928;2022-07-23T09:18:56;4.32;;;3.55;;
6467;SDS011;3267;48.794;9.928;2022-07-23T09:21:24;6.38;;;3.50;;
6467;SDS011;3267;48.794;9.928;2022-07-23T09:24:00;4.15;;;3.33;;
6467;SDS011;3267;48.794;9.928;2022-07-23T09:26:41;5.75;;;5.25;;
6467;SDS011;3267;48.794;9.928;2022-07-23T09:29:12;3.85;;;3.55;;
6467;SDS011;3267;48.794;9.928;2022-07-23T09:34:10;4.50;;;4.07;;
6467;SDS011;3267;48.794;9.928;2022-07-23T09:37:12;7.28;;;4.00;;
6467;SDS011;3267;48.794;9.928;2022-07-23T09:39:40;3.83;;;3.53;;
6467;SDS011;3267;48.794;9.928;2022-07-23T09:42:20;4.78;;;4.28;;
6467;SDS011;3267;48.794;9.928;2022-07-23T09:44:50;5.28;;;3.83;;
6467;SDS011;3267;48.794;9.928;2022-07-23T09:47:18;3.72;;;3.42;;
6467;SDS011;3267;48.794;9.928;2022-07-23T09:52:34;4.20;;;3.75;;
6467;SDS011;3267;48.794;9.928;2022-07-23T09:55:03;6.85;;;3.88;;
6467;SDS011;3267;48.794;9.928;2022-07-23T09:57:30;3.65;;;3.35;;
6467;SDS011;3267;48.794;9.928;2022-07-23T10:00:01;4.60;;;3.85;;
6467;SDS011;3267;48.794;9.928;2022-07-23T10:02:32;4.03;;;3.33;;
6467;SDS011;3267;48.794;9.928;2022-07-23T10:04:58;5.15;;;3.50;;
6467;SDS011;3267;48.794;9.928;2022-07-23T10:07:26;8.57;;;3.70;;
6467;SDS011;3267;48.794;9.928;2022-07-23T10:09:55;4.20;;;3.88;;
6467;SDS011;3267;48.794;9.928;2022-07-23T10:12:21;3.92;;;3.50;;
6467;SDS011;3267;48.794;9.928;2022-07-23T10:14:55;4.43;;;3.38;;
6467;SDS011;3267;48.794;9.928;2022-07-23T10:17:22;5.78;;;3.60;;
6467;SDS011;3267;48.794;9.928;2022-07-23T10:19:49;3.78;;;3.45;;
6467;SDS011;3267;48.794;9.928;2022-07-23T10:22:29;3.60;;;3.28;;
6467;SDS011;3267;48.794;9.928;2022-07-23T10:30:31;4.60;;;3.55;;
6467;SDS011;3267;48.794;9.928;2022-07-23T10:36:01;3.92;;;3.55;;
6467;SDS011;3267;48.794;9.928;2022-07-23T10:41:03;4.15;;;3.72;;
6467;SDS011;3267;48.794;9.928;2022-07-23T10:43:30;7.68;;;3.95;;
6467;SDS011;3267;48.794;9.928;2022-07-23T10:46:20;4.00;;;3.70;;
6467;SDS011;3267;48.794;9.928;2022-07-23T10:48:46;3.55;;;3.25;;
6467;SDS011;3267;48.794;9.928;2022-07-23T10:57:17;4.70;;;3.22;;
6467;SDS011;3267;48.794;9.928;2022-07-23T11:02:38;6.47;;;3.38;;
6467;SDS011;3267;48.794;9.928;2022-07-23T11:05:10;5.50;;;3.08;;
6467;SDS011;3267;48.794;9.928;2022-07-23T11:10:32;4.85;;;3.25;;
6467;SDS011;3267;48.794;9.928;2022-07-23T11:32:02;3.55;;;3.25;;
6467;SDS011;3267;48.794;9.928;2022-07-23T11:37:00;2.95;;;2.75;;
6467;SDS011;3267;48.794;9.928;2022-07-23T11:39:28;3.92;;;3.63;;
6467;SDS011;3267;48.794;9.928;2022-07-23T11:41:54;3.58;;;3.28;;
6467;SDS011;3267;48.794;9.928;2022-07-23T11:44:27;3.20;;;2.90;;
6467;SDS011;3267;48.794;9.928;2022-07-23T11:46:55;2.92;;;2.72;;
6467;SDS011;3267;48.794;9.928;2022-07-23T11:49:21;3.10;;;2.90;;
6467;SDS011;3267;48.794;9.928;2022-07-23T11:52:01;3.75;;;3.05;;
6467;SDS011;3267;48.794;9.928;2022-07-23T11:54:32;3.42;;;3.03;;
6467;SDS011;3267;48.794;9.928;2022-07-23T11:56:59;3.10;;;2.90;;
6467;SDS011;3267;48.794;9.928;2022-07-23T11:59:26;7.25;;;3.85;;
6467;SDS011;3267;48.794;9.928;2022-07-23T12:01:57;5.07;;;3.33;;
6467;SDS011;3267;48.794;9.928;2022-07-23T12:04:25;4.50;;;3.30;;
6467;SDS011;3267;48.794;9.928;2022-07-23T12:12:45;3.50;;;3.17;;
6467;SDS011;3267;48.794;9.928;2022-07-23T12:15:13;3.95;;;2.83;;
6467;SDS011;3267;48.794;9.928;2022-07-23T12:17:41;3.20;;;3.00;;
6467;SDS011;3267;48.794;9.928;2022-07-23T12:20:09;3.15;;;2.83;;
6467;SDS011;3267;48.794;9.928;2022-07-23T12:22:38;3.47;;;2.92;;
6467;SDS011;3267;48.794;9.928;2022-07-23T12:27:32;4.03;;;2.85;;
6467;SDS011;3267;48.794;9.928;2022-07-23T12:29:58;3.45;;;2.80;;
6467;SDS011;3267;48.794;9.928;2022-07-23T12:32:25;4.70;;;2.65;;
6467;SDS011;3267;48.794;9.928;2022-07-23T12:35:05;2.97;;;2.78;;
6467;SDS011;3267;48.794;9.928;2022-07-23T12:37:34;3.10;;;2.90;;
6467;SDS011;3267;48.794;9.928;2022-07-23T12:42:51;3.17;;;2.97;;
6467;SDS011;3267;48.794;9.928;2022-07-23T12:45:17;3.92;;;3.17;;
6467;SDS011;3267;48.794;9.928;2022-07-23T12:47:51;2.70;;;2.50;;
6467;SDS011;3267;48.794;9.928;2022-07-23T12:53:09;3.58;;;2.70;;
6467;SDS011;3267;48.794;9.928;2022-07-23T12:55:35;3.40;;;2.75;;
6467;SDS011;3267;48.794;9.928;2022-07-23T12:58:06;2.60;;;2.40;;
6467;SDS011;3267;48.794;9.928;2022-07-23T13:03:37;3.72;;;2.20;;
6467;SDS011;3267;48.794;9.928;2022-07-23T13:06:09;3.20;;;2.90;;
6467;SDS011;3267;48.794;9.928;2022-07-23T13:08:37;3.55;;;2.65;;
6467;SDS011;3267;48.794;9.928;2022-07-23T13:11:04;2.60;;;2.40;;
6467;SDS011;3267;48.794;9.928;2022-07-23T13:13:31;2.90;;;2.70;;
6467;SDS011;3267;48.794;9.928;2022-07-23T13:15:58;2.85;;;2.53;;
6467;SDS011;3267;48.794;9.928;2022-07-23T13:18:24;9.18;;;3.42;;
6467;SDS011;3267;48.794;9.928;2022-07-23T13:20:51;5.20;;;3.08;;
6467;SDS011;3267;48.794;9.928;2022-07-23T13:23:17;3.05;;;2.75;;
6467;SDS011;3267;48.794;9.928;2022-07-23T13:25:44;7.38;;;3.03;;
6467;SDS011;3267;48.794;9.928;2022-07-23T13:28:11;11.82;;;3.25;;
6467;SDS011;3267;48.794;9.928;2022-07-23T13:30:38;2.78;;;2.58;;
6467;SDS011;3267;48.794;9.928;2022-07-23T13:33:05;6.10;;;2.80;;
6467;SDS011;3267;48.794;9.928;2022-07-23T13:35:31;4.82;;;2.80;;
6467;SDS011;3267;48.794;9.928;2022-07-23T13:37:58;3.33;;;3.03;;
6467;SDS011;3267;48.794;9.928;2022-07-23T13:40:28;3.17;;;2.88;;
6467;SDS011;3267;48.794;9.928;2022-07-23T13:42:54;2.80;;;2.60;;
6467;SDS011;3267;48.794;9.928;2022-07-23T13:45:20;2.95;;;2.70;;
6467;SDS011;3267;48.794;9.928;2022-07-23T13:47:46;3.22;;;2.65;;
6467;SDS011;3267;48.794;9.928;2022-07-23T13:50:12;3.40;;;2.90;;
6467;SDS011;3267;48.794;9.928;2022-07-23T13:52:38;5.55;;;2.75;;
6467;SDS011;3267;48.794;9.928;2022-07-23T13:55:04;3.10;;;2.80;;
6467;SDS011;3267;48.794;9.928;2022-07-23T13:57:31;4.18;;;2.88;;
6467;SDS011;3267;48.794;9.928;2022-07-23T13:59:57;4.03;;;2.97;;
6467;SDS011;3267;48.794;9.928;2022-07-23T14:02:24;6.45;;;2.90;;
6467;SDS011;3267;48.794;9.928;2022-07-23T14:04:50;3.00;;;2.80;;
6467;SDS011;3267;48.794;9.928;2022-07-23T14:07:17;3.15;;;2.92;;
6467;SDS011;3267;48.794;9.928;2022-07-23T14:09:43;4.85;;;2.97;;
6467;SDS011;3267;48.794;9.928;2022-07-23T14:12:10;2.97;;;2.78;;
6467;SDS011;3267;48.794;9.928;2022-07-23T14:14:36;2.92;;;2.72;;
6467;SDS011;3267;48.794;9.928;2022-07-23T14:17:02;3.25;;;2.90;;
6467;SDS011;3267;48.794;9.928;2022-07-23T14:19:29;2.72;;;2.53;;
6467;SDS011;3267;48.794;9.928;2022-07-23T14:21:55;3.13;;;2.83;;
6467;SDS011;3267;48.794;9.928;2022-07-23T14:24:21;3.63;;;3.33;;
6467;SDS011;3267;48.794;9.928;2022-07-23T14:26:47;3.38;;;3.00;;
6467;SDS011;3267;48.794;9.928;2022-07-23T14:29:14;3.67;;;3.38;;
6467;SDS011;3267;48.794;9.928;2022-07-23T14:31:40;3.50;;;3.20;;
6467;SDS011;3267;48.794;9.928;2022-07-23T14:34:06;3.90;;;2.85;;
6467;SDS011;3267;48.794;9.928;2022-07-23T14:36:32;3.63;;;2.97;;
6467;SDS011;3267;48.794;9.928;2022-07-23T14:38:58;3.58;;;2.78;;
6467;SDS011;3267;48.794;9.928;2022-07-23T14:41:28;3.50;;;3.20;;
6467;SDS011;3267;48.794;9.928;2022-07-23T14:43:54;4.28;;;3.28;;
6467;SDS011;3267;48.794;9.928;2022-07-23T14:46:21;3.58;;;3.28;;
6467;SDS011;3267;48.794;9.928;2022-07-23T14:48:47;3.30;;;2.95;;
6467;SDS011;3267;48.794;9.928;2022-07-23T14:51:13;3.65;;;3.35;;
6467;SDS011;3267;48.794;9.928;2022-07-23T14:53:39;5.05;;;2.90;;
6467;SDS011;3267;48.794;9.928;2022-07-23T14:56:05;4.03;;;3.63;;
6467;SDS011;3267;48.794;9.928;2022-07-23T14:58:32;4.18;;;3.10;;
6467;SDS011;3267;48.794;9.928;2022-07-23T15:00:58;3.42;;;2.92;;
6467;SDS011;3267;48.794;9.928;2022-07-23T15:03:24;3.47;;;3.17;;
6467;SDS011;3267;48.794;9.928;2022-07-23T15:05:51;3.50;;;3.20;;
6467;SDS011;3267;48.794;9.928;2022-07-23T15:08:17;3.42;;;3.13;;
6467;SDS011;3267;48.794;9.928;2022-07-23T15:10:43;3.65;;;3.35;;
6467;SDS011;3267;48.794;9.928;2022-07-23T15:13:09;4.35;;;3.30;;
6467;SDS011;3267;48.794;9.928;2022-07-23T15:15:35;5.47;;;3.20;;
6467;SDS011;3267;48.794;9.928;2022-07-23T15:18:02;3.83;;;3.53;;
6467;SDS011;3267;48.794;9.928;2022-07-23T15:20:28;5.30;;;3.35;;
6467;SDS011;3267;48.794;9.928;2022-07-23T15:22:55;3.92;;;3.50;;
6467;SDS011;3267;48.794;9.928;2022-07-23T15:25:21;3.95;;;3.58;;
6467;SDS011;3267;48.794;9.928;2022-07-23T15:27:47;5.18;;;3.15;;
6467;SDS011;3267;48.794;9.928;2022-07-23T15:30:13;3.78;;;3.47;;
6467;SDS011;3267;48.794;9.928;2022-07-23T15:32:39;3.90;;;3.55;;
6467;SDS011;3267;48.794;9.928;2022-07-23T15:35:06;4.22;;;3.42;;
6467;SDS011;3267;48.794;9.928;2022-07-23T15:37:36;4.40;;;4.07;;
6467;SDS011;3267;48.794;9.928;2022-07-23T15:40:02;4.05;;;3.75;;
6467;SDS011;3267;48.794;9.928;2022-07-23T15:42:31;4.10;;;3.40;;
6467;SDS011;3267;48.794;9.928;2022-07-23T15:44:57;3.35;;;3.10;;
6467;SDS011;3267;48.794;9.928;2022-07-23T15:47:23;4.68;;;3.70;;
6467;SDS011;3267;48.794;9.928;2022-07-23T15:49:50;3.47;;;3.17;;
6467;SDS011;3267;48.794;9.928;2022-07-23T15:52:16;4.40;;;3.78;;
6467;SDS011;3267;48.794;9.928;2022-07-23T15:54:42;5.05;;;4.00;;
6467;SDS011;3267;48.794;9.928;2022-07-23T15:57:08;3.97;;;3.58;;
6467;SDS011;3267;48.794;9.928;2022-07-23T15:59:35;8.05;;;3.72;;
6467;SDS011;3267;48.794;9.928;2022-07-23T16:02:01;4.03;;;3.60;;
6467;SDS011;3267;48.794;9.928;2022-07-23T16:04:28;3.88;;;3.42;;
6467;SDS011;3267;48.794;9.928;2022-07-23T16:06:55;8.07;;;3.95;;
6467;SDS011;3267;48.794;9.928;2022-07-23T16:09:21;4.22;;;3.63;;
6467;SDS011;3267;48.794;9.928;2022-07-23T16:11:47;5.65;;;3.35;;
6467;SDS011;3267;48.794;9.928;2022-07-23T16:14:13;4.80;;;3.70;;
6467;SDS011;3267;48.794;9.928;2022-07-23T16:16:40;3.80;;;3.40;;
6467;SDS011;3267;48.794;9.928;2022-07-23T16:19:06;6.05;;;3.92;;
6467;SDS011;3267;48.794;9.928;2022-07-23T16:21:32;3.90;;;3.50;;
6467;SDS011;3267;48.794;9.928;2022-07-23T16:23:58;4.20;;;3.80;;
6467;SDS011;3267;48.794;9.928;2022-07-23T16:26:25;3.58;;;3.35;;
6467;SDS011;3267;48.794;9.928;2022-07-23T16:28:51;4.15;;;3.75;;
6467;SDS011;3267;48.794;9.928;2022-07-23T16:31:17;3.78;;;3.47;;
6467;SDS011;3267;48.794;9.928;2022-07-23T16:33:43;3.63;;;3.33;;
6467;SDS011;3267;48.794;9.928;2022-07-23T16:36:09;4.10;;;3.80;;
6467;SDS011;3267;48.794;9.928;2022-07-23T16:38:36;4.15;;;3.75;;
6467;SDS011;3267;48.794;9.928;2022-07-23T16:41:03;7.25;;;3.95;;
6467;SDS011;3267;48.794;9.928;2022-07-23T16:43:29;4.15;;;3.72;;
6467;SDS011;3267;48.794;9.928;2022-07-23T16:45:57;3.80;;;3.30;;
6467;SDS011;3267;48.794;9.928;2022-07-23T16:48:24;4.82;;;3.53;;
6467;SDS011;3267;48.794;9.928;2022-07-23T16:50:50;4.20;;;3.85;;
6467;SDS011;3267;48.794;9.928;2022-07-23T16:53:16;11.10;;;3.72;;
6467;SDS011;3267;48.794;9.928;2022-07-23T16:55:42;4.20;;;3.08;;
6467;SDS011;3267;48.794;9.928;2022-07-23T16:58:08;6.25;;;3.75;;
6467;SDS011;3267;48.794;9.928;2022-07-23T17:00:35;6.47;;;3.40;;
6467;SDS011;3267;48.794;9.928;2022-07-23T17:03:02;5.28;;;3.75;;
6467;SDS011;3267;48.794;9.928;2022-07-23T17:05:28;3.97;;;3.58;;
6467;SDS011;3267;48.794;9.928;2022-07-23T17:07:55;6.20;;;4.55;;
6467;SDS011;3267;48.794;9.928;2022-07-23T17:10:21;3.50;;;3.20;;
6467;SDS011;3267;48.794;9.928;2022-07-23T17:12:48;4.75;;;3.67;;
6467;SDS011;3267;48.794;9.928;2022-07-23T17:15:19;4.75;;;3.78;;
6467;SDS011;3267;48.794;9.928;2022-07-23T17:17:45;3.60;;;3.30;;
6467;SDS011;3267;48.794;9.928;2022-07-23T17:20:13;4.68;;;3.90;;
6467;SDS011;3267;48.794;9.928;2022-07-23T17:22:39;5.97;;;4.30;;
6467;SDS011;3267;48.794;9.928;2022-07-23T17:25:07;6.35;;;3.72;;
6467;SDS011;3267;48.794;9.928;2022-07-23T17:27:39;5.60;;;3.30;;
6467;SDS011;3267;48.794;9.928;2022-07-23T17:30:06;6.07;;;3.58;;
6467;SDS011;3267;48.794;9.928;2022-07-23T17:32:33;12.48;;;3.72;;
6467;SDS011;3267;48.794;9.928;2022-07-23T17:34:59;8.90;;;3.65;;
6467;SDS011;3267;48.794;9.928;2022-07-23T17:37:25;7.43;;;3.97;;
6467;SDS011;3267;48.794;9.928;2022-07-23T17:39:51;4.35;;;3.95;;
6467;SDS011;3267;48.794;9.928;2022-07-23T17:42:17;5.85;;;4.07;;
6467;SDS011;3267;48.794;9.928;2022-07-23T17:44:44;4.50;;;4.13;;
6467;SDS011;3267;48.794;9.928;2022-07-23T17:47:10;5.18;;;3.85;;
6467;SDS011;3267;48.794;9.928;2022-07-23T17:49:36;5.82;;;4.28;;
6467;SDS011;3267;48.794;9.928;2022-07-23T17:52:03;5.60;;;4.15;;
6467;SDS011;3267;48.794;9.928;2022-07-23T17:54:30;4.53;;;4.13;;
6467;SDS011;3267;48.794;9.928;2022-07-23T17:56:57;4.97;;;4.53;;
6467;SDS011;3267;48.794;9.928;2022-07-23T17:59:23;5.97;;;4.10;;
6467;SDS011;3267;48.794;9.928;2022-07-23T18:01:50;4.15;;;3.85;;
6467;SDS011;3267;48.794;9.928;2022-07-23T18:04:17;4.88;;;3.90;;
6467;SDS011;3267;48.794;9.928;2022-07-23T18:06:44;4.60;;;4.07;;
6467;SDS011;3267;48.794;9.928;2022-07-23T18:09:10;6.70;;;4.15;;
6467;SDS011;3267;48.794;9.928;2022-07-23T18:11:37;3.92;;;3.63;;
6467;SDS011;3267;48.794;9.928;2022-07-23T18:14:07;4.20;;;3.80;;
6467;SDS011;3267;48.794;9.928;2022-07-23T18:16:34;5.22;;;4.10;;
6467;SDS011;3267;48.794;9.928;2022-07-23T18:19:01;10.90;;;3.90;;
6467;SDS011;3267;48.794;9.928;2022-07-23T18:21:28;5.13;;;4.63;;
6467;SDS011;3267;48.794;9.928;2022-07-23T18:23:54;5.72;;;4.30;;
6467;SDS011;3267;48.794;9.928;2022-07-23T18:26:20;4.85;;;4.32;;
6467;SDS011;3267;48.794;9.928;2022-07-23T18:28:46;5.28;;;4.75;;
6467;SDS011;3267;48.794;9.928;2022-07-23T18:31:13;4.88;;;4.20;;
6467;SDS011;3267;48.794;9.928;2022-07-23T18:33:39;4.20;;;3.90;;
6467;SDS011;3267;48.794;9.928;2022-07-23T18:36:06;8.40;;;3.88;;
6467;SDS011;3267;48.794;9.928;2022-07-23T18:38:32;5.18;;;4.30;;
6467;SDS011;3267;48.794;9.928;2022-07-23T18:40:58;8.40;;;3.80;;
6467;SDS011;3267;48.794;9.928;2022-07-23T18:43:24;4.53;;;3.97;;
6467;SDS011;3267;48.794;9.928;2022-07-23T18:45:50;4.20;;;3.83;;
6467;SDS011;3267;48.794;9.928;2022-07-23T18:48:17;4.93;;;4.18;;
6467;SDS011;3267;48.794;9.928;2022-07-23T18:50:43;4.72;;;4.15;;
6467;SDS011;3267;48.794;9.928;2022-07-23T18:53:10;5.20;;;4.47;;
6467;SDS011;3267;48.794;9.928;2022-07-23T18:55:37;4.60;;;3.90;;
6467;SDS011;3267;48.794;9.928;2022-07-23T18:58:03;5.10;;;4.40;;
6467;SDS011;3267;48.794;9.928;2022-07-23T19:00:30;5.40;;;4.43;;
6467;SDS011;3267;48.794;9.928;2022-07-23T19:02:58;4.35;;;3.95;;
6467;SDS011;3267;48.794;9.928;2022-07-23T19:05:24;5.38;;;4.15;;
6467;SDS011;3267;48.794;9.928;2022-07-23T19:07:51;3.92;;;3.63;;
6467;SDS011;3267;48.794;9.928;2022-07-23T19:10:17;7.72;;;3.95;;
6467;SDS011;3267;48.794;9.928;2022-07-23T19:12:43;5.53;;;4.20;;
6467;SDS011;3267;48.794;9.928;2022-07-23T19:15:10;5.13;;;4.10;;
6467;SDS011;3267;48.794;9.928;2022-07-23T19:17:37;4.57;;;4.18;;
6467;SDS011;3267;48.794;9.928;2022-07-23T19:20:04;5.03;;;4.22;;
6467;SDS011;3267;48.794;9.928;2022-07-23T19:22:31;5.22;;;4.20;;
6467;SDS011;3267;48.794;9.928;2022-07-23T19:24:57;4.65;;;3.85;;
6467;SDS011;3267;48.794;9.928;2022-07-23T19:27:24;4.40;;;4.00;;
6467;SDS011;3267;48.794;9.928;2022-07-23T19:29:50;4.25;;;3.80;;
6467;SDS011;3267;48.794;9.928;2022-07-23T19:32:16;5.63;;;3.95;;
6467;SDS011;3267;48.794;9.928;2022-07-23T19:34:43;4.70;;;4.28;;
6467;SDS011;3267;48.794;9.928;2022-07-23T19:37:09;5.60;;;4.32;;
6467;SDS011;3267;48.794;9.928;2022-07-23T19:39:42;4.75;;;3.47;;
6467;SDS011;3267;48.794;9.928;2022-07-23T19:42:09;3.97;;;3.58;;
6467;SDS011;3267;48.794;9.928;2022-07-23T19:44:35;4.13;;;3.72;;
6467;SDS011;3267;48.794;9.928;2022-07-23T19:47:02;4.63;;;4.15;;
6467;SDS011;3267;48.794;9.928;2022-07-23T19:49:29;4.38;;;3.97;;
6467;SDS011;3267;48.794;9.928;2022-07-23T19:51:55;5.00;;;4.10;;
6467;SDS011;3267;48.794;9.928;2022-07-23T19:54:21;5.63;;;4.22;;
6467;SDS011;3267;48.794;9.928;2022-07-23T19:56:48;4.07;;;3.67;;
6467;SDS011;3267;48.794;9.928;2022-07-23T19:59:14;4.43;;;4.03;;
6467;SDS011;3267;48.794;9.928;2022-07-23T20:01:40;4.30;;;3.95;;
6467;SDS011;3267;48.794;9.928;2022-07-23T20:04:07;4.57;;;4.18;;
6467;SDS011;3267;48.794;9.928;2022-07-23T20:06:33;4.47;;;3.70;;
6467;SDS011;3267;48.794;9.928;2022-07-23T20:08:59;6.22;;;4.13;;
6467;SDS011;3267;48.794;9.928;2022-07-23T20:11:26;6.85;;;3.95;;
6467;SDS011;3267;48.794;9.928;2022-07-23T20:13:52;4.80;;;3.80;;
6467;SDS011;3267;48.794;9.928;2022-07-23T20:16:18;5.18;;;3.80;;
6467;SDS011;3267;48.794;9.928;2022-07-23T20:18:45;4.97;;;3.97;;
6467;SDS011;3267;48.794;9.928;2022-07-23T20:21:11;4.13;;;3.72;;
6467;SDS011;3267;48.794;9.928;2022-07-23T20:23:37;5.00;;;4.55;;